createdAt,value
2018-07-23T00:00:16.636Z,17.53
2018-07-23T00:02:43.873Z,16.87
2018-07-23T00:05:10.978Z,17.07
2018-07-23T00:07:38.132Z,17.07
2018-07-23T00:10:05.322Z,17.47
2018-07-23T00:12:32.500Z,17.13
2018-07-23T00:14:59.657Z,17.70
2018-07-23T00:17:26.775Z,18.10
2018-07-23T00:19:53.920Z,18.27
2018-07-23T00:22:21.229Z,18.33
2018-07-23T00:24:48.351Z,17.37
2018-07-23T00:27:15.477Z,17.43
2018-07-23T00:29:42.647Z,18.13
2018-07-23T00:32:09.761Z,17.77
2018-07-23T00:34:36.884Z,18.23
2018-07-23T00:37:04.100Z,19.07
2018-07-23T00:39:31.239Z,17.83
2018-07-23T00:41:58.393Z,18.23
2018-07-23T00:44:25.604Z,18.27
2018-07-23T00:46:52.767Z,19.07
2018-07-23T00:49:19.912Z,19.43
2018-07-23T00:51:47.179Z,20.23
2018-07-23T00:54:14.293Z,18.87
2018-07-23T00:56:41.448Z,18.80
2018-07-23T00:59:08.634Z,20.27
2018-07-23T01:01:35.751Z,18.33
2018-07-23T01:04:02.969Z,20.03
2018-07-23T01:06:30.116Z,20.27
2018-07-23T01:08:57.236Z,18.17
2018-07-23T01:11:24.348Z,19.03
2018-07-23T01:13:51.563Z,19.07
2018-07-23T01:16:18.703Z,19.57
2018-07-23T01:18:45.823Z,19.97
2018-07-23T01:21:13.057Z,20.43
2018-07-23T01:23:40.249Z,21.33
2018-07-23T01:26:07.364Z,20.70
2018-07-23T01:28:34.519Z,19.87
2018-07-23T01:31:01.649Z,19.57
2018-07-23T01:33:28.763Z,19.40
2018-07-23T01:35:55.909Z,19.67
2018-07-23T01:38:23.027Z,20.33
2018-07-23T01:40:50.140Z,21.20
2018-07-23T01:43:17.372Z,20.57
2018-07-23T01:45:44.513Z,20.40
2018-07-23T01:48:11.648Z,20.53
2018-07-23T01:50:38.809Z,21.53
2018-07-23T01:53:05.940Z,21.23
2018-07-23T01:55:33.120Z,21.43
2018-07-23T01:58:00.366Z,21.97
2018-07-23T02:00:27.493Z,22.87
2018-07-23T02:02:54.591Z,23.90
2018-07-23T02:05:21.833Z,22.27
2018-07-23T02:07:48.952Z,22.63
2018-07-23T02:10:16.120Z,22.47
2018-07-23T02:12:43.321Z,24.07
2018-07-23T02:15:10.451Z,24.13
2018-07-23T02:17:37.572Z,24.43
2018-07-23T02:20:05.005Z,23.30
2018-07-23T02:22:32.141Z,25.80
2018-07-23T02:25:00.249Z,24.50
2018-07-23T02:27:27.419Z,25.20
2018-07-23T02:29:54.540Z,25.60
2018-07-23T02:32:21.638Z,25.33
2018-07-23T02:34:48.760Z,24.77
2018-07-23T02:37:15.961Z,24.00
2018-07-23T02:39:43.211Z,25.63
2018-07-23T02:42:10.380Z,24.90
2018-07-23T02:44:37.718Z,24.43
2018-07-23T02:47:05.273Z,25.77
2018-07-23T02:49:32.451Z,24.90
2018-07-23T02:51:59.576Z,24.23
2018-07-23T02:54:26.713Z,25.50
2018-07-23T02:56:53.980Z,24.27
2018-07-23T02:59:21.083Z,23.33
2018-07-23T03:01:48.196Z,24.77
2018-07-23T03:04:15.440Z,24.07
2018-07-23T03:06:42.590Z,24.60
2018-07-23T03:09:09.707Z,23.43
2018-07-23T03:11:36.864Z,24.03
2018-07-23T03:14:04.014Z,22.70
2018-07-23T03:16:31.200Z,22.40
2018-07-23T03:18:58.347Z,20.63
2018-07-23T03:21:25.465Z,20.63
2018-07-23T03:23:52.564Z,20.10
2018-07-23T03:26:19.710Z,19.83
2018-07-23T03:28:46.852Z,19.23
2018-07-23T03:31:13.970Z,18.33
2018-07-23T03:33:41.232Z,18.63
2018-07-23T03:36:08.345Z,18.30
2018-07-23T03:38:35.532Z,17.43
2018-07-23T03:41:02.792Z,17.50
2018-07-23T03:43:29.940Z,16.87
2018-07-23T03:45:57.084Z,16.67
2018-07-23T03:48:24.240Z,17.00
2018-07-23T03:50:51.366Z,16.97
2018-07-23T03:53:18.541Z,17.17
2018-07-23T03:55:45.769Z,15.90
2018-07-23T03:58:12.924Z,15.23
2018-07-23T04:00:40.058Z,16.90
2018-07-23T04:03:11.840Z,16.23
2018-07-23T04:05:38.984Z,15.77
2018-07-23T04:08:06.180Z,18.37
2018-07-23T04:10:33.344Z,16.30
2018-07-23T04:13:00.459Z,15.77
2018-07-23T04:15:27.579Z,15.90
2018-07-23T04:18:01.283Z,16.87
2018-07-23T04:20:28.641Z,15.20
2018-07-23T04:22:55.735Z,20.97
2018-07-23T04:25:22.958Z,16.97
2018-07-23T04:27:50.111Z,15.00
2018-07-23T04:30:17.288Z,15.90
2018-07-23T04:32:44.528Z,17.57
2018-07-23T04:35:11.670Z,15.17
2018-07-23T04:37:38.814Z,15.17
2018-07-23T04:40:06.179Z,14.13
2018-07-23T04:42:33.316Z,15.20
2018-07-23T04:45:00.442Z,15.40
2018-07-23T04:47:27.621Z,15.40
2018-07-23T04:49:54.745Z,15.37
2018-07-23T04:52:21.920Z,14.37
2018-07-23T04:54:49.072Z,14.87
2018-07-23T04:57:16.213Z,14.63
2018-07-23T04:59:43.352Z,14.80
2018-07-23T05:02:10.508Z,14.97
2018-07-23T05:04:37.636Z,13.67
2018-07-23T05:07:04.808Z,14.33
2018-07-23T05:09:32.096Z,14.07
2018-07-23T05:11:59.236Z,14.43
2018-07-23T05:14:26.378Z,14.93
2018-07-23T05:16:53.636Z,14.97
2018-07-23T05:19:20.775Z,14.10
2018-07-23T05:21:47.895Z,14.30
2018-07-23T05:24:15.055Z,13.30
2018-07-23T05:26:42.195Z,13.73
2018-07-23T05:29:09.318Z,13.33
2018-07-23T05:31:36.532Z,13.23
2018-07-23T05:34:03.689Z,13.43
2018-07-23T05:36:30.856Z,12.73
2018-07-23T05:38:58.004Z,12.43
2018-07-23T05:41:25.171Z,11.63
2018-07-23T05:43:52.301Z,11.30
2018-07-23T05:46:20.891Z,11.57
2018-07-23T05:48:48.044Z,10.60
2018-07-23T05:51:15.256Z,10.80
2018-07-23T05:53:42.460Z,11.10
2018-07-23T05:56:09.583Z,10.97
2018-07-23T05:58:36.745Z,11.43
2018-07-23T06:01:03.975Z,10.97
2018-07-23T06:03:31.160Z,11.40
2018-07-23T06:05:58.278Z,9.87
2018-07-23T06:08:25.517Z,9.83
2018-07-23T06:10:52.715Z,9.33
2018-07-23T06:13:19.854Z,9.23
2018-07-23T06:15:47.464Z,9.80
2018-07-23T06:18:14.660Z,9.70
2018-07-23T06:20:41.794Z,10.83
2018-07-23T06:23:08.997Z,9.50
2018-07-23T06:25:36.247Z,8.73
2018-07-23T06:28:03.419Z,11.40
2018-07-23T06:30:30.681Z,9.17
2018-07-23T06:32:57.907Z,8.73
2018-07-23T06:35:25.028Z,7.97
2018-07-23T06:37:52.212Z,7.60
2018-07-23T06:40:19.443Z,7.63
2018-07-23T06:42:46.581Z,7.93
2018-07-23T06:45:14.123Z,7.57
2018-07-23T06:47:41.260Z,6.23
2018-07-23T06:50:08.403Z,6.80
2018-07-23T06:52:35.687Z,7.13
2018-07-23T06:55:02.883Z,6.97
2018-07-23T06:57:30.098Z,6.53
2018-07-23T06:59:57.227Z,7.47
2018-07-23T07:02:24.384Z,6.57
2018-07-23T07:04:51.518Z,8.03
2018-07-23T07:07:18.680Z,7.07
2018-07-23T07:09:45.891Z,5.90
2018-07-23T07:12:13.056Z,6.00
2018-07-23T07:14:40.231Z,5.60
2018-07-23T07:17:07.375Z,5.50
2018-07-23T07:19:34.514Z,6.50
2018-07-23T07:22:01.779Z,7.50
2018-07-23T07:24:28.976Z,8.50
2018-07-23T07:26:56.150Z,5.10
2018-07-23T07:29:23.472Z,5.10
2018-07-23T07:31:50.593Z,4.97
2018-07-23T07:34:17.699Z,5.57
2018-07-23T07:36:44.869Z,6.27
2018-07-23T07:39:12.782Z,4.63
2018-07-23T07:41:40.367Z,4.80
2018-07-23T07:44:08.199Z,3.53
2018-07-23T07:46:35.525Z,3.77
2018-07-23T07:49:02.756Z,4.87
2018-07-23T07:51:30.044Z,7.00
2018-07-23T07:53:57.177Z,5.97
2018-07-23T07:56:24.340Z,5.60
2018-07-23T07:58:51.655Z,4.27
2018-07-23T08:01:18.864Z,4.07
2018-07-23T08:03:45.983Z,4.30
2018-07-23T08:06:13.144Z,5.87
2018-07-23T08:08:40.292Z,4.57
2018-07-23T08:11:07.453Z,4.40
2018-07-23T08:13:35.071Z,4.17
2018-07-23T08:16:02.195Z,3.97
2018-07-23T08:18:29.363Z,3.90
2018-07-23T08:20:56.549Z,4.50
2018-07-23T08:23:23.664Z,4.13
2018-07-23T08:25:50.781Z,4.67
2018-07-23T08:28:18.043Z,3.73
2018-07-23T08:30:45.161Z,4.43
2018-07-23T08:33:12.297Z,3.83
2018-07-23T08:35:39.471Z,5.50
2018-07-23T08:38:06.615Z,3.43
2018-07-23T08:40:33.764Z,4.10
2018-07-23T08:43:00.973Z,3.43
2018-07-23T08:45:28.085Z,4.20
2018-07-23T08:47:55.214Z,3.17
2018-07-23T08:50:22.368Z,2.77
2018-07-23T08:52:49.503Z,4.47
2018-07-23T08:55:16.641Z,4.10
2018-07-23T08:57:43.816Z,3.23
2018-07-23T09:00:10.967Z,3.23
2018-07-23T09:02:38.110Z,3.70
2018-07-23T09:05:05.318Z,2.87
2018-07-23T09:07:32.534Z,4.47
2018-07-23T09:09:59.648Z,3.80
2018-07-23T09:12:26.847Z,3.60
2018-07-23T09:14:54.032Z,3.33
2018-07-23T09:17:21.215Z,3.70
2018-07-23T09:19:48.381Z,3.67
2018-07-23T09:22:15.525Z,3.70
2018-07-23T09:24:42.694Z,3.77
2018-07-23T09:27:09.964Z,2.50
2018-07-23T09:29:37.118Z,2.93
2018-07-23T09:32:04.301Z,2.57
2018-07-23T09:34:31.471Z,2.17
2018-07-23T09:36:58.619Z,2.60
2018-07-23T09:39:25.741Z,2.27
2018-07-23T09:41:52.904Z,3.47
2018-07-23T09:44:20.084Z,2.50
2018-07-23T09:46:47.200Z,3.93
2018-07-23T09:49:14.376Z,3.30
2018-07-23T09:51:41.514Z,3.80
2018-07-23T09:54:08.682Z,2.50
2018-07-23T09:56:35.896Z,3.37
2018-07-23T09:59:03.058Z,2.27
2018-07-23T10:01:30.194Z,3.30
2018-07-23T10:03:57.465Z,3.27
2018-07-23T10:06:24.600Z,2.70
2018-07-23T10:08:51.909Z,2.70
2018-07-23T10:11:19.268Z,2.40
2018-07-23T10:13:46.388Z,3.93
2018-07-23T10:16:13.558Z,3.13
2018-07-23T10:18:40.723Z,3.10
2018-07-23T10:21:07.906Z,2.60
2018-07-23T10:23:35.071Z,3.60
2018-07-23T10:26:02.248Z,3.17
2018-07-23T10:28:29.439Z,2.60
2018-07-23T10:30:56.579Z,2.37
2018-07-23T10:33:23.836Z,3.30
2018-07-23T10:35:50.959Z,4.13
2018-07-23T10:38:18.111Z,2.70
2018-07-23T10:40:45.489Z,3.03
2018-07-23T10:43:12.602Z,3.27
2018-07-23T10:45:39.774Z,3.00
2018-07-23T10:48:07.113Z,4.03
2018-07-23T10:50:34.246Z,2.57
2018-07-23T10:53:01.373Z,3.80
2018-07-23T10:55:28.568Z,2.90
2018-07-23T10:57:55.710Z,2.37
2018-07-23T11:00:22.853Z,3.87
2018-07-23T11:02:50.041Z,2.83
2018-07-23T11:05:17.165Z,2.50
2018-07-23T11:07:44.304Z,2.57
2018-07-23T11:10:11.518Z,1.90
2018-07-23T11:12:38.710Z,2.40
2018-07-23T11:15:06.637Z,2.20
2018-07-23T11:17:34.072Z,3.73
2018-07-23T11:20:01.228Z,2.50
2018-07-23T11:22:28.378Z,3.27
2018-07-23T11:24:55.647Z,2.30
2018-07-23T11:27:22.709Z,4.70
2018-07-23T11:29:49.874Z,2.67
2018-07-23T11:32:17.153Z,2.63
2018-07-23T11:34:44.279Z,3.00
2018-07-23T11:37:11.415Z,2.50
2018-07-23T11:39:38.600Z,3.60
2018-07-23T11:42:05.777Z,2.97
2018-07-23T11:44:32.917Z,3.57
2018-07-23T11:47:00.140Z,2.47
2018-07-23T11:49:27.276Z,3.17
2018-07-23T11:51:54.429Z,2.40
2018-07-23T11:54:21.605Z,2.70
2018-07-23T11:56:48.794Z,3.30
2018-07-23T11:59:16.053Z,2.70
2018-07-23T12:01:43.287Z,2.83
2018-07-23T12:04:10.732Z,2.42
2018-07-23T12:06:37.552Z,2.40
2018-07-23T12:09:07.266Z,2.77
2018-07-23T12:11:34.452Z,2.80
2018-07-23T12:14:01.602Z,3.67
2018-07-23T12:16:28.852Z,3.80
2018-07-23T12:18:56.056Z,2.43
2018-07-23T12:21:23.178Z,3.60
2018-07-23T12:23:50.455Z,3.33
2018-07-23T12:26:17.600Z,3.53
2018-07-23T12:28:44.738Z,3.23
2018-07-23T12:31:11.906Z,3.13
2018-07-23T12:33:39.082Z,3.30
2018-07-23T12:36:07.495Z,2.93
2018-07-23T12:38:34.714Z,3.10
2018-07-23T12:41:01.886Z,2.83
2018-07-23T12:43:29.009Z,4.73
2018-07-23T12:45:56.275Z,4.27
2018-07-23T12:48:23.439Z,3.33
2018-07-23T12:50:50.583Z,4.23
2018-07-23T12:53:17.856Z,3.60
2018-07-23T12:55:44.976Z,2.93
2018-07-23T12:58:12.112Z,3.00
2018-07-23T13:00:39.336Z,3.70
2018-07-23T13:03:06.460Z,3.00
2018-07-23T13:05:33.645Z,4.50
2018-07-23T13:08:02.495Z,3.37
2018-07-23T13:10:29.620Z,2.60
2018-07-23T13:12:56.777Z,2.60
2018-07-23T13:15:23.964Z,3.13
2018-07-23T13:17:51.072Z,3.83
2018-07-23T13:20:18.314Z,3.50
2018-07-23T13:22:45.665Z,3.27
2018-07-23T13:25:12.830Z,5.33
2018-07-23T13:27:39.924Z,2.50
2018-07-23T13:30:07.187Z,4.90
2018-07-23T13:32:34.337Z,3.03
2018-07-23T13:35:01.491Z,3.13
2018-07-23T13:37:28.748Z,2.87
2018-07-23T13:39:55.863Z,3.03
2018-07-23T13:42:22.997Z,4.63
2018-07-23T13:44:50.171Z,2.73
2018-07-23T13:47:17.319Z,3.47
2018-07-23T13:49:44.435Z,2.90
2018-07-23T13:52:11.692Z,4.07
2018-07-23T13:54:38.844Z,2.97
2018-07-23T13:57:06.024Z,3.47
2018-07-23T13:59:33.186Z,3.57
2018-07-23T14:02:00.360Z,3.87
2018-07-23T14:04:27.499Z,2.70
2018-07-23T14:06:54.664Z,4.57
2018-07-23T14:09:21.780Z,2.50
2018-07-23T14:11:48.916Z,2.90
2018-07-23T14:14:16.080Z,3.73
2018-07-23T14:16:43.200Z,3.80
2018-07-23T14:19:10.380Z,3.03
2018-07-23T14:21:37.643Z,3.20
2018-07-23T14:24:04.908Z,3.07
2018-07-23T14:26:32.064Z,4.07
2018-07-23T14:28:59.280Z,3.27
2018-07-23T14:31:26.407Z,3.27
2018-07-23T14:33:53.519Z,2.87
2018-07-23T14:36:20.826Z,2.83
2018-07-23T14:38:47.977Z,3.07
2018-07-23T14:41:15.141Z,3.13
2018-07-23T14:43:42.458Z,3.00
2018-07-23T14:46:09.598Z,3.60
2018-07-23T14:48:36.889Z,2.80
2018-07-23T14:51:04.150Z,3.90
2018-07-23T14:53:31.275Z,3.50
2018-07-23T14:55:58.379Z,2.90
2018-07-23T14:58:25.552Z,2.90
2018-07-23T15:00:52.705Z,2.57
2018-07-23T15:03:19.831Z,3.37
2018-07-23T15:05:46.976Z,3.43
2018-07-23T15:08:14.388Z,3.17
2018-07-23T15:10:41.531Z,2.67
2018-07-23T15:13:08.737Z,2.57
2018-07-23T15:15:35.895Z,2.40
2018-07-23T15:18:03.065Z,2.60
2018-07-23T15:20:30.247Z,2.23
2018-07-23T15:22:57.488Z,2.90
2018-07-23T15:25:24.644Z,2.37
2018-07-23T15:27:51.826Z,2.42
2018-07-23T15:30:18.952Z,2.55
2018-07-23T15:32:46.099Z,3.10
2018-07-23T15:35:13.301Z,2.40
2018-07-23T15:37:40.416Z,2.52
2018-07-23T15:40:07.604Z,3.47
2018-07-23T15:42:34.777Z,3.80
2018-07-23T15:45:02.062Z,3.47
2018-07-23T15:47:29.108Z,3.50
2018-07-23T15:49:56.266Z,2.60
2018-07-23T15:52:23.395Z,2.45
2018-07-23T15:54:50.531Z,3.15
2018-07-23T15:57:17.795Z,3.08
2018-07-23T15:59:44.939Z,2.85
2018-07-23T16:02:12.091Z,3.27
2018-07-23T16:04:39.270Z,2.33
2018-07-23T16:07:06.401Z,2.95
2018-07-23T16:09:33.631Z,2.50
2018-07-23T16:12:00.826Z,2.42
2018-07-23T16:14:27.951Z,2.58
2018-07-23T16:16:55.067Z,2.85
2018-07-23T16:19:22.220Z,2.33
2018-07-23T16:21:49.367Z,3.65
2018-07-23T16:24:16.581Z,3.52
2018-07-23T16:26:43.777Z,4.65
2018-07-23T16:29:10.887Z,2.35
2018-07-23T16:31:38.051Z,3.70
2018-07-23T16:34:05.224Z,2.95
2018-07-23T16:36:32.364Z,2.37
2018-07-23T16:38:59.498Z,4.40
2018-07-23T16:41:26.680Z,3.20
2018-07-23T16:43:53.827Z,6.28
2018-07-23T16:46:20.965Z,3.62
2018-07-23T16:48:48.143Z,2.30
2018-07-23T16:51:15.264Z,2.50
2018-07-23T16:53:42.445Z,3.15
2018-07-23T16:56:09.645Z,2.95
2018-07-23T16:58:36.772Z,2.20
2018-07-23T17:01:03.941Z,4.85
2018-07-23T17:03:31.097Z,3.43
2018-07-23T17:05:58.283Z,2.83
2018-07-23T17:08:25.391Z,4.20
2018-07-23T17:10:52.570Z,5.17
2018-07-23T17:13:19.700Z,2.70
2018-07-23T17:15:46.867Z,2.90
2018-07-23T17:18:14.095Z,2.83
2018-07-23T17:20:41.207Z,2.93
2018-07-23T17:23:08.331Z,3.60
2018-07-23T17:25:36.091Z,2.83
2018-07-23T17:28:03.250Z,2.37
2018-07-23T17:30:30.376Z,2.70
2018-07-23T17:32:57.519Z,2.60
2018-07-23T17:35:24.666Z,2.67
2018-07-23T17:37:51.807Z,2.97
2018-07-23T17:40:18.992Z,2.43
2018-07-23T17:42:46.106Z,2.80
2018-07-23T17:45:13.264Z,2.83
2018-07-23T17:47:40.403Z,4.77
2018-07-23T17:50:07.620Z,4.20
2018-07-23T17:52:34.760Z,2.70
2018-07-23T17:55:01.975Z,4.47
2018-07-23T17:57:29.105Z,3.40
2018-07-23T17:59:56.249Z,3.90
2018-07-23T18:02:23.471Z,3.43
2018-07-23T18:04:50.590Z,2.73
2018-07-23T18:07:17.801Z,3.07
2018-07-23T18:09:44.949Z,3.63
2018-07-23T18:12:12.106Z,3.17
2018-07-23T18:14:39.219Z,3.13
2018-07-23T18:17:06.567Z,5.73
2018-07-23T18:19:33.773Z,2.70
2018-07-23T18:22:00.889Z,2.80
2018-07-23T18:24:28.600Z,2.73
2018-07-23T18:26:55.785Z,3.10
2018-07-23T18:29:22.923Z,3.47
2018-07-23T18:31:50.090Z,3.20
2018-07-23T18:34:17.220Z,3.13
2018-07-23T18:36:44.361Z,3.80
2018-07-23T18:39:12.361Z,3.53
2018-07-23T18:41:39.984Z,3.23
2018-07-23T18:44:07.313Z,4.30
2018-07-23T18:46:34.484Z,4.20
2018-07-23T18:49:23.294Z,3.53
2018-07-23T18:51:51.624Z,3.63
2018-07-23T18:54:20.475Z,3.77
2018-07-23T18:56:49.780Z,2.70
2018-07-23T18:59:17.030Z,3.40
2018-07-23T19:01:44.236Z,5.73
2018-07-23T19:04:11.348Z,3.00
2018-07-23T19:06:38.567Z,3.00
2018-07-23T19:09:09.191Z,3.23
2018-07-23T19:11:36.380Z,3.07
2018-07-23T19:14:03.764Z,2.90
2018-07-23T19:16:30.903Z,4.00
2018-07-23T19:18:59.043Z,5.73
2018-07-23T19:21:26.219Z,3.53
2018-07-23T19:23:53.321Z,4.37
2018-07-23T19:26:20.467Z,4.80
2018-07-23T19:28:47.651Z,3.30
2018-07-23T19:31:14.787Z,3.40
2018-07-23T19:33:41.934Z,3.70
2018-07-23T19:36:09.147Z,3.33
2018-07-23T19:38:36.276Z,3.90
2018-07-23T19:41:03.477Z,3.50
2018-07-23T19:43:30.839Z,3.50
2018-07-23T19:45:58.068Z,3.70
2018-07-23T19:48:25.232Z,3.63
2018-07-23T19:50:52.460Z,3.43
2018-07-23T19:53:19.621Z,5.27
2018-07-23T19:55:46.831Z,4.23
2018-07-23T19:58:14.102Z,4.73
2018-07-23T20:00:41.231Z,7.17
2018-07-23T20:03:08.390Z,6.57
2018-07-23T20:05:36.572Z,6.50
2018-07-23T20:08:03.781Z,6.47
2018-07-23T20:10:30.882Z,5.03
2018-07-23T20:12:58.265Z,4.50
2018-07-23T20:15:25.321Z,4.77
2018-07-23T20:17:52.439Z,4.80
2018-07-23T20:20:19.647Z,4.37
2018-07-23T20:22:46.744Z,4.93
2018-07-23T20:25:13.865Z,4.60
2018-07-23T20:27:41.087Z,5.57
2018-07-23T20:30:08.329Z,4.90
2018-07-23T20:32:35.460Z,4.17
2018-07-23T20:35:02.801Z,3.97
2018-07-23T20:37:29.943Z,4.17
2018-07-23T20:39:57.080Z,4.00
2018-07-23T20:42:24.237Z,4.23
2018-07-23T20:44:51.356Z,4.30
2018-07-23T20:47:18.492Z,4.47
2018-07-23T20:49:45.720Z,4.37
2018-07-23T20:52:12.864Z,4.53
2018-07-23T20:54:40.004Z,4.03
2018-07-23T20:57:07.227Z,5.87
2018-07-23T20:59:34.343Z,4.73
2018-07-23T21:02:01.514Z,4.60
2018-07-23T21:04:28.742Z,6.07
2018-07-23T21:06:55.861Z,4.80
2018-07-23T21:09:22.984Z,4.70
2018-07-23T21:11:50.208Z,5.73
2018-07-23T21:14:17.355Z,5.30
2018-07-23T21:16:45.199Z,5.33
2018-07-23T21:19:12.363Z,5.53
2018-07-23T21:24:12.453Z,5.53
2018-07-23T21:26:39.596Z,4.80
2018-07-23T21:29:06.745Z,5.20
2018-07-23T21:31:34.053Z,4.90
2018-07-23T21:34:01.177Z,5.30
2018-07-23T21:36:28.285Z,5.20
2018-07-23T21:38:55.522Z,4.90
2018-07-23T21:41:22.653Z,5.03
2018-07-23T21:43:49.869Z,4.87
2018-07-23T21:46:17.066Z,4.93
2018-07-23T21:48:44.180Z,4.30
2018-07-23T21:51:11.291Z,6.47
2018-07-23T21:53:38.459Z,4.53
2018-07-23T21:56:05.692Z,5.20
2018-07-23T21:58:32.807Z,5.33
2018-07-23T22:00:59.994Z,5.83
2018-07-23T22:03:27.143Z,4.80
2018-07-23T22:05:54.304Z,6.17
2018-07-23T22:08:21.577Z,4.83
2018-07-23T22:10:48.718Z,5.30
2018-07-23T22:13:15.851Z,5.30
2018-07-23T22:15:43.011Z,5.77
2018-07-23T22:18:10.155Z,5.03
2018-07-23T22:20:37.259Z,5.50
2018-07-23T22:23:04.688Z,5.17
2018-07-23T22:25:31.900Z,5.23
2018-07-23T22:27:59.011Z,5.43
2018-07-23T22:30:26.207Z,6.57
2018-07-23T22:32:53.371Z,5.47
2018-07-23T22:35:20.487Z,5.83
2018-07-23T22:37:47.728Z,13.53
2018-07-23T22:40:14.865Z,5.70
2018-07-23T22:42:41.997Z,5.33
2018-07-23T22:45:09.164Z,5.70
2018-07-23T22:47:36.261Z,5.90
2018-07-23T22:50:03.686Z,5.10
2018-07-23T22:52:30.878Z,5.60
2018-07-23T22:54:58.095Z,5.37
2018-07-23T22:57:25.218Z,5.93
2018-07-23T22:59:52.440Z,5.10
2018-07-23T23:02:19.571Z,5.90
2018-07-23T23:04:46.674Z,5.47
2018-07-23T23:07:13.836Z,5.40
2018-07-23T23:09:40.967Z,5.73
2018-07-23T23:12:08.156Z,6.13
2018-07-23T23:14:35.268Z,5.70
2018-07-23T23:17:02.395Z,5.93
2018-07-23T23:19:30.048Z,5.87
2018-07-23T23:21:57.191Z,8.03
2018-07-23T23:24:24.297Z,6.27
2018-07-23T23:26:51.958Z,6.10
2018-07-23T23:29:19.103Z,5.63
2018-07-23T23:31:46.234Z,6.30
2018-07-23T23:34:13.527Z,6.43
2018-07-23T23:36:40.620Z,5.60
2018-07-23T23:39:09.274Z,6.67
2018-07-23T23:41:36.843Z,6.10
2018-07-23T23:44:03.947Z,6.37
2018-07-23T23:46:31.165Z,6.37
2018-07-23T23:48:58.310Z,5.40
2018-07-23T23:51:25.434Z,6.53
2018-07-23T23:53:52.535Z,6.77
2018-07-23T23:56:19.680Z,6.43
2018-07-23T23:58:46.920Z,6.70
